Time;durP1;ratioP1;P1;durP2;ratioP2;P2;SDS_P1;SDS_P2;PMS_P1;PMS_P2;Temp;Humidity;BMP_temperature;BMP_pressure;BME280_temperature;BME280_humidity;BME280_pressure;Samples;Min_cycle;Max_cycle;Signal;HPM_P1;HPM_P2
2023/01/28 08:19:01;;;;;;;19.63;10.57;;;;;;;4.94;69.16;101128.56;5380038;22;20040;-67
2023/01/28 08:21:29;;;;;;;23.75;9.57;;;;;;;5.03;66.03;101131.78;5000663;28;20042;-67
2023/01/28 08:23:57;;;;;;;18.55;8.05;;;;;;;4.76;66.82;101135.66;5004331;28;20041;-67
2023/01/28 08:26:25;;;;;;;15.27;6.97;;;;;;;4.74;65.00;101129.63;5009130;28;20404;-67
2023/01/28 08:28:52;;;;;;;12.57;6.45;;;;;;;4.93;63.52;101138.56;5008770;28;20045;-67
2023/01/28 08:31:20;;;;;;;14.57;7.88;;;;;;;5.17;63.08;101148.69;5006907;28;20516;-67
2023/01/28 08:33:48;;;;;;;12.65;6.88;;;;;;;5.04;62.04;101145.09;5008960;28;20057;-67
2023/01/28 08:36:19;;;;;;;13.52;6.25;;;;;;;5.16;61.48;101147.88;5010042;28;20042;-67
2023/01/28 08:38:52;;;;;;;17.27;7.00;;;;;;;5.04;63.15;101152.44;5009010;28;20046;-66
2023/01/28 08:41:21;;;;;;;13.48;6.63;;;;;;;5.16;61.14;101161.44;5006972;28;20046;-67
2023/01/28 08:43:49;;;;;;;19.63;7.90;;;;;;;4.99;60.90;101163.97;5009350;28;20530;-67
2023/01/28 08:46:16;;;;;;;13.30;8.05;;;;;;;5.23;61.27;101156.75;5009858;28;20360;-67
2023/01/28 08:48:44;;;;;;;19.17;9.48;;;;;;;5.20;62.40;101167.25;5009262;28;20053;-67
2023/01/28 08:51:12;;;;;;;22.45;9.77;;;;;;;5.28;60.45;101163.38;5009617;28;20399;-68
2023/01/28 08:53:39;;;;;;;21.13;9.05;;;;;;;5.22;61.61;101173.25;5008973;28;20052;-67
2023/01/28 08:56:09;;;;;;;23.90;10.40;;;;;;;5.23;62.27;101178.47;5007509;28;20519;-67
2023/01/28 08:58:37;;;;;;;19.83;8.93;;;;;;;5.54;61.99;101183.06;5008386;28;20053;-67
2023/01/28 09:01:05;;;;;;;24.30;10.25;;;;;;;5.52;62.16;101183.28;5008828;28;20506;-68
2023/01/28 09:03:34;;;;;;;15.65;8.10;;;;;;;6.02;60.61;101184.84;5010684;28;20050;-68
2023/01/28 09:06:04;;;;;;;19.73;8.40;;;;;;;5.81;59.19;101188.91;5007321;28;20061;-67
2023/01/28 09:08:31;;;;;;;42.97;13.55;;;;;;;5.45;59.83;101193.41;5009694;28;20492;-67
2023/01/28 09:10:59;;;;;;;44.22;14.48;;;;;;;5.33;59.81;101202.34;5010730;28;20045;-67
2023/01/28 09:13:27;;;;;;;36.35;14.98;;;;;;;5.46;61.15;101198.63;5009585;28;20045;-67
2023/01/28 09:15:55;;;;;;;18.55;9.10;;;;;;;5.65;61.19;101202.13;5011193;28;20060;-68
2023/01/28 09:18:23;;;;;;;12.80;7.38;;;;;;;5.81;60.50;101198.97;5012905;28;20053;-68
2023/01/28 09:20:50;;;;;;;17.30;8.30;;;;;;;5.77;59.86;101209.47;5023526;28;20049;-68
2023/01/28 09:23:18;;;;;;;17.70;8.05;;;;;;;5.91;59.78;101204.63;5033214;28;20533;-68
2023/01/28 09:25:46;;;;;;;15.00;7.10;;;;;;;6.00;59.13;101207.84;5033516;28;20069;-68
2023/01/28 09:28:13;;;;;;;14.73;6.95;;;;;;;6.06;58.77;101209.66;5034099;28;20064;-68
2023/01/28 09:30:41;;;;;;;18.73;8.07;;;;;;;6.14;57.86;101220.22;5034333;28;20060;-68
2023/01/28 09:33:09;;;;;;;11.73;7.22;;;;;;;6.27;57.68;101215.59;5034357;28;20057;-68
2023/01/28 09:35:36;;;;;;;16.35;7.32;;;;;;;5.43;57.90;101211.84;5034469;28;20069;-68
2023/01/28 09:38:04;;;;;;;16.20;6.88;;;;;;;5.91;57.18;101213.63;5034099;28;20056;-68
2023/01/28 09:40:39;;;;;;;14.27;7.60;;;;;;;6.11;57.10;101220.66;5033844;28;20042;-68
2023/01/28 09:43:32;;;;;;;20.30;8.48;;;;;;;6.37;56.41;101225.88;5034003;28;20053;-68
2023/01/28 09:46:03;;;;;;;17.73;6.95;;;;;;;5.94;57.03;101222.38;5034584;28;20053;-68
2023/01/28 09:48:39;;;;;;;18.90;9.23;;;;;;;6.50;55.70;101228.38;5033983;28;20137;-68
2023/01/28 09:51:13;;;;;;;14.95;7.18;;;;;;;6.58;55.28;101225.31;5033929;28;20065;-68
2023/01/28 09:53:47;;;;;;;11.10;6.70;;;;;;;6.86;55.34;101223.72;5034449;28;20046;-68
2023/01/28 09:56:30;;;;;;;19.52;8.20;;;;;;;7.11;54.77;101219.91;5033634;28;20057;-68
2023/01/28 09:59:13;;;;;;;24.13;10.63;;;;;;;7.66;53.62;101217.69;5033978;28;20033;-68
2023/01/28 10:02:01;;;;;;;14.93;7.88;;;;;;;6.66;53.81;101220.56;5033830;28;20052;-68
2023/01/28 10:04:46;;;;;;;14.73;7.22;;;;;;;6.85;54.36;101227.53;5017092;28;20038;-68
2023/01/28 10:07:36;;;;;;;18.30;8.32;;;;;;;7.12;53.37;101223.44;5016079;28;20522;-68
2023/01/28 10:10:12;;;;;;;14.68;7.75;;;;;;;6.81;51.85;101234.53;5033113;28;20049;-69
2023/01/28 10:12:59;;;;;;;18.45;8.43;;;;;;;6.77;54.18;101232.50;5016773;28;20049;-68
2023/01/28 10:16:01;;;;;;;15.90;8.30;;;;;;;7.46;51.55;101223.59;5034470;28;20053;-68
2023/01/28 10:18:39;;;;;;;16.25;9.00;;;;;;;7.30;51.91;101230.63;5033788;28;20057;-68
2023/01/28 10:21:17;;;;;;;14.30;7.82;;;;;;;7.47;52.27;101219.78;5033032;28;20061;-68
2023/01/28 10:23:57;;;;;;;16.73;8.18;;;;;;;7.50;51.55;101218.47;5033844;28;20494;-68
2023/01/28 10:26:32;;;;;;;15.45;8.13;;;;;;;8.07;49.61;101222.22;5034377;28;20045;-68
2023/01/28 10:29:10;;;;;;;16.33;8.02;;;;;;;8.03;50.68;101227.31;5018160;28;20053;-67
2023/01/28 10:31:43;;;;;;;14.45;8.07;;;;;;;7.69;51.73;101230.00;5031079;28;20049;-67
2023/01/28 10:34:11;;;;;;;18.50;9.30;;;;;;;8.07;49.57;101223.03;5013086;28;20065;-67
2023/01/28 10:36:39;;;;;;;16.42;9.20;;;;;;;7.50;51.07;101219.31;5032423;28;20045;-68
2023/01/28 10:39:11;;;;;;;17.92;8.75;;;;;;;7.53;53.16;101212.56;5029698;28;20480;-67
2023/01/28 10:41:39;;;;;;;16.02;7.90;;;;;;;7.78;53.05;101206.72;5031671;28;20510;-67
2023/01/28 10:44:36;;;;;;;11.57;6.72;;;;;;;7.83;50.56;101207.88;5016246;28;20051;-67
2023/01/28 10:47:13;;;;;;;12.20;6.32;;;;;;;8.16;48.62;101203.53;5031532;28;20648;-67
2023/01/28 10:49:46;;;;;;;12.32;6.45;;;;;;;7.82;50.78;101193.44;5030052;28;20045;-67
2023/01/28 10:52:15;;;;;;;12.95;6.72;;;;;;;8.18;48.42;101195.94;5030505;28;20053;-68
2023/01/28 10:54:43;;;;;;;15.00;7.22;;;;;;;8.24;49.19;101200.38;5030963;28;20487;-67
2023/01/28 10:57:18;;;;;;;12.52;7.20;;;;;;;8.17;49.99;101195.09;5011567;28;20042;-67
2023/01/28 10:59:48;;;;;;;14.70;6.80;;;;;;;7.93;51.56;101189.00;5013508;28;20052;-67
2023/01/28 11:02:35;;;;;;;17.73;9.25;;;;;;;8.23;51.56;101176.94;5030846;28;20480;-67
2023/01/28 11:05:06;;;;;;;14.32;7.45;;;;;;;8.46;47.93;101177.81;5030146;28;20488;-67
2023/01/28 11:07:34;;;;;;;27.10;11.52;;;;;;;8.54;48.41;101171.09;5029715;28;20037;-67
2023/01/28 11:10:02;;;;;;;17.00;8.20;;;;;;;8.25;49.71;101180.22;5029868;28;20052;-68
2023/01/28 11:12:30;;;;;;;20.42;8.70;;;;;;;8.70;48.21;101172.16;5029578;28;20534;-68
2023/01/28 11:14:59;;;;;;;18.85;9.27;;;;;;;8.72;48.16;101180.91;5031686;28;20050;-68
2023/01/28 11:17:37;;;;;;;16.27;8.88;;;;;;;8.52;48.60;101174.09;5030949;28;20056;-68
2023/01/28 11:20:21;;;;;;;20.15;8.43;;;;;;;8.59;49.38;101172.03;5030426;28;20407;-68
2023/01/28 11:22:49;;;;;;;21.13;9.45;;;;;;;9.01;50.29;101169.81;5027548;28;20049;-67
2023/01/28 11:25:22;;;;;;;16.60;7.57;;;;;;;9.03;50.05;101167.66;5030611;28;20049;-68
2023/01/28 11:27:52;;;;;;;15.75;6.53;;;;;;;8.93;49.65;101159.31;5032179;28;20526;-69
2023/01/28 11:30:33;;;;;;;13.52;6.90;;;;;;;9.07;52.94;101152.41;5031249;28;20056;-69
2023/01/28 11:33:05;;;;;;;31.92;12.80;;;;;;;9.05;50.51;101149.09;5031456;28;20072;-69
2023/01/28 11:35:33;;;;;;;14.85;8.05;;;;;;;8.87;46.61;101150.25;5031497;28;20057;-68
2023/01/28 11:38:01;;;;;;;15.80;7.95;;;;;;;8.81;47.16;101151.28;5031002;28;20057;-68
2023/01/28 11:40:29;;;;;;;15.35;7.72;;;;;;;8.93;48.23;101149.25;5031004;28;20045;-68
2023/01/28 11:42:57;;;;;;;14.15;7.32;;;;;;;8.70;46.02;101139.41;5031691;28;20117;-69
2023/01/28 11:45:42;;;;;;;12.85;6.30;;;;;;;8.92;50.61;101141.31;5030315;28;20072;-69
2023/01/28 11:48:56;;;;;;;15.45;6.93;;;;;;;8.85;47.88;101134.13;5031762;28;20045;-69
2023/01/28 11:51:44;;;;;;;11.82;6.47;;;;;;;9.05;49.49;101131.91;5024213;28;20056;-69
2023/01/28 11:54:27;;;;;;;12.93;6.20;;;;;;;9.03;45.72;101125.88;4982690;28;20056;-69
2023/01/28 11:57:17;;;;;;;12.65;5.65;;;;;;;8.93;47.16;101129.28;5031471;28;20480;-68
2023/01/28 12:00:09;;;;;;;9.77;5.82;;;;;;;8.78;46.50;101124.47;5014850;28;20049;-68
2023/01/28 12:03:04;;;;;;;11.15;5.95;;;;;;;9.21;49.90;101116.50;4982659;28;20498;-68
2023/01/28 12:05:56;;;;;;;12.65;5.78;;;;;;;9.27;48.21;101118.19;4986530;28;20499;-68
2023/01/28 12:08:33;;;;;;;14.30;6.55;;;;;;;9.34;49.13;101113.34;4996379;28;20057;-69
2023/01/28 12:11:08;;;;;;;10.27;5.90;;;;;;;9.47;50.08;101103.06;4973052;28;20046;-68
2023/01/28 12:13:36;;;;;;;;;;;;;;;9.44;46.37;101106.34;4972695;28;20483;-68
2023/01/28 12:16:12;;;;;;;7.57;4.57;;;;;;;9.41;42.07;101108.53;4990581;28;19932;-68
2023/01/28 12:19:00;;;;;;;9.82;5.00;;;;;;;9.44;42.93;101106.34;4979337;28;20045;-68
2023/01/28 12:21:44;;;;;;;10.85;5.25;;;;;;;9.55;47.03;101097.16;4992236;28;20057;-68
2023/01/28 12:24:31;;;;;;;8.45;5.20;;;;;;;9.47;43.68;101100.34;4967424;28;20050;-69
2023/01/28 12:27:09;;;;;;;10.00;5.43;;;;;;;9.53;45.29;101096.56;4978502;28;20065;-68
2023/01/28 12:29:54;;;;;;;11.07;5.00;;;;;;;9.41;45.50;101091.28;4978382;28;20484;-68
2023/01/28 12:32:50;;;;;;;9.85;5.13;;;;;;;9.32;44.96;101090.94;4968460;28;20050;-68
2023/01/28 12:35:57;;;;;;;8.32;4.80;;;;;;;9.22;44.35;101096.31;4996072;28;20498;-69
2023/01/28 12:38:55;;;;;;;7.70;4.85;;;;;;;9.08;45.19;101091.25;5023084;28;20034;-69
2023/01/28 12:41:31;;;;;;;9.18;5.80;;;;;;;8.64;45.61;101092.13;5007058;28;20041;-70
2023/01/28 12:44:30;;;;;;;16.38;7.70;;;;;;;8.74;46.67;101088.69;5012579;28;20041;-67
2023/01/28 12:47:08;;;;;;;17.83;7.80;;;;;;;9.01;48.59;101082.44;5029892;28;20051;-69
2023/01/28 12:49:46;;;;;;;12.45;6.35;;;;;;;9.27;47.16;101086.25;5011971;28;20404;-66
2023/01/28 12:52:37;;;;;;;13.18;6.10;;;;;;;9.23;46.56;101093.31;5012737;28;20048;-67
2023/01/28 12:55:14;;;;;;;11.10;6.20;;;;;;;9.43;47.56;101091.84;5030118;28;20399;-68
2023/01/28 12:57:43;;;;;;;9.05;5.60;;;;;;;9.32;45.40;101080.00;5029524;28;20364;-68
2023/01/28 13:00:36;;;;;;;9.60;5.55;;;;;;;9.10;44.91;101089.09;5032940;28;20045;-68
2023/01/28 13:03:14;;;;;;;12.93;6.93;;;;;;;8.87;43.77;101088.31;5030945;28;20403;-68
2023/01/28 13:05:53;;;;;;;11.20;5.80;;;;;;;8.91;44.90;101085.91;5032033;28;20046;-68
2023/01/28 13:08:24;;;;;;;10.95;5.95;;;;;;;9.03;46.56;101085.75;5031388;28;20037;-68
2023/01/28 13:10:55;;;;;;;9.38;5.82;;;;;;;8.94;45.55;101088.09;5033276;28;20045;-68
2023/01/28 13:13:29;;;;;;;8.75;5.15;;;;;;;9.00;46.67;101086.28;5033814;28;20053;-68
2023/01/28 13:15:59;;;;;;;10.30;5.80;;;;;;;8.83;46.10;101080.88;5034086;28;20377;-68
2023/01/28 13:18:32;;;;;;;11.75;5.57;;;;;;;8.52;45.57;101085.97;4973470;28;20511;-68
2023/01/28 13:21:23;;;;;;;10.65;5.15;;;;;;;8.50;45.57;101080.75;5015641;28;20045;-69
2023/01/28 13:24:05;;;;;;;10.02;4.90;;;;;;;8.52;45.43;101086.81;5022258;28;20053;-70
2023/01/28 13:26:44;;;;;;;10.15;5.28;;;;;;;8.57;45.41;101095.03;5034366;28;20053;-71
2023/01/28 13:29:31;;;;;;;10.48;5.70;;;;;;;8.71;44.66;101094.69;5034075;28;20052;-71
2023/01/28 13:32:02;;;;;;;12.65;5.68;;;;;;;8.91;44.34;101099.53;5033846;28;20475;-71
2023/01/28 13:34:43;;;;;;;10.73;5.95;;;;;;;9.01;45.14;101101.56;5034877;28;20045;-71
2023/01/28 13:37:31;;;;;;;9.73;6.15;;;;;;;8.80;44.76;101098.59;5035111;28;20045;-70
2023/01/28 13:40:02;;;;;;;8.32;5.57;;;;;;;8.71;44.20;101091.94;5034939;28;20064;-70
2023/01/28 13:42:31;;;;;;;9.32;5.05;;;;;;;8.73;44.54;101097.97;5035251;28;20404;-70
2023/01/28 13:45:14;;;;;;;9.60;5.63;;;;;;;8.56;45.85;101098.84;5017404;28;20056;-71
2023/01/28 13:47:46;;;;;;;11.07;5.70;;;;;;;8.48;45.44;101096.53;5035029;28;20491;-70
2023/01/28 13:50:20;;;;;;;9.13;5.03;;;;;;;8.25;45.90;101103.06;5016743;28;20484;-70
2023/01/28 13:52:48;;;;;;;6.80;4.30;;;;;;;8.24;45.81;101107.69;5034890;28;20041;-71
2023/01/28 13:55:23;;;;;;;9.20;5.40;;;;;;;8.37;47.20;101098.31;5034885;28;20045;-71
2023/01/28 13:58:33;;;;;;;12.20;5.47;;;;;;;8.22;46.02;101109.00;5034635;28;20049;-70
2023/01/28 14:01:48;;;;;;;10.10;5.80;;;;;;;8.26;45.92;101105.50;5016781;28;20042;-70
2023/01/28 14:04:46;;;;;;;7.40;5.33;;;;;;;8.51;46.52;101119.75;5034457;28;20052;-71
2023/01/28 14:07:29;;;;;;;11.82;5.28;;;;;;;8.53;43.42;101125.81;5034482;28;20049;-70
2023/01/28 14:10:18;;;;;;;7.47;4.22;;;;;;;8.64;45.83;101122.13;5034121;28;20068;-71
2023/01/28 14:12:49;;;;;;;8.10;5.28;;;;;;;8.50;45.29;101121.66;5034278;28;20049;-70
2023/01/28 14:15:36;;;;;;;15.55;7.32;;;;;;;8.30;46.76;101125.75;5034279;28;20049;-71
2023/01/28 14:18:14;;;;;;;12.15;5.55;;;;;;;8.42;44.85;101119.38;5034071;28;20053;-70
2023/01/28 14:20:44;;;;;;;10.65;5.22;;;;;;;8.30;45.61;101125.75;5049107;28;20519;-71
2023/01/28 14:23:17;;;;;;;9.38;6.03;;;;;;;8.40;46.05;101127.00;5034154;28;20045;-70
2023/01/28 14:25:48;;;;;;;9.35;4.97;;;;;;;8.24;44.70;101125.94;5034396;28;20475;-69
2023/01/28 14:28:37;;;;;;;9.43;4.90;;;;;;;8.34;43.87;101128.81;5034078;28;20049;-69
2023/01/28 14:31:12;;;;;;;9.10;4.78;;;;;;;8.43;44.64;101131.94;5033934;28;20049;-71
2023/01/28 14:33:42;;;;;;;9.73;5.05;;;;;;;8.27;45.19;101122.72;5034039;28;20050;-72
2023/01/28 14:36:11;;;;;;;12.48;5.65;;;;;;;8.22;46.19;101137.09;5034234;28;20053;-72
2023/01/28 14:38:43;;;;;;;10.15;5.10;;;;;;;8.18;47.10;101125.84;5033660;28;20060;-72
2023/01/28 14:41:25;;;;;;;12.88;5.20;;;;;;;8.17;44.93;101137.03;5033874;28;20056;-70
2023/01/28 14:43:56;;;;;;;8.35;4.95;;;;;;;8.11;46.29;101133.38;5033830;28;20369;-72
2023/01/28 14:46:37;;;;;;;8.93;5.03;;;;;;;8.15;44.24;101134.53;5032319;28;20038;-71
2023/01/28 14:49:18;;;;;;;8.35;5.28;;;;;;;8.14;44.93;101141.06;5033760;28;20057;-71
2023/01/28 14:51:55;;;;;;;8.55;4.80;;;;;;;8.09;45.11;101142.88;5033757;28;20387;-71
2023/01/28 14:54:53;;;;;;;9.02;4.63;;;;;;;7.94;45.61;101147.03;5015629;28;20084;-71
2023/01/28 14:57:33;;;;;;;7.43;4.35;;;;;;;8.01;47.71;101147.69;5033735;28;20395;-71
2023/01/28 15:00:01;;;;;;;8.38;4.75;;;;;;;7.96;46.44;101150.31;5015997;28;20053;-71
2023/01/28 15:02:30;;;;;;;8.80;4.78;;;;;;;7.82;46.98;101160.72;5033715;28;20046;-71
2023/01/28 15:05:28;;;;;;;10.10;4.82;;;;;;;7.75;46.34;101158.19;5016190;28;20052;-71
2023/01/28 15:07:56;;;;;;;14.25;5.35;;;;;;;7.74;47.88;101156.53;5017201;28;20046;-71
2023/01/28 15:10:29;;;;;;;8.13;5.28;;;;;;;7.69;47.62;101152.88;5015741;28;20056;-71
2023/01/28 15:12:59;;;;;;;9.73;5.60;;;;;;;7.67;47.55;101153.13;5033488;28;20049;-72
2023/01/28 15:15:27;;;;;;;8.70;5.03;;;;;;;7.71;48.01;101158.91;5032813;28;20088;-80
2023/01/28 15:18:13;;;;;;;19.38;6.20;;;;;;;7.85;52.02;101157.53;5199389;23;20495;-87
2023/01/28 15:20:46;;;;;;;7.97;4.28;;;;;;;7.87;49.18;101163.53;5057135;28;20071;-95
2023/01/28 15:23:19;;;;;;;22.23;7.72;;;;;;;8.05;50.88;101165.22;5040660;28;20051;-80
2023/01/28 15:25:47;;;;;;;11.30;5.63;;;;;;;7.64;47.73;101164.53;5070992;28;20048;-70
2023/01/28 15:28:37;;;;;;;8.30;5.10;;;;;;;7.62;47.96;101162.03;5072828;28;20040;-69
2023/01/28 15:31:05;;;;;;;10.02;5.38;;;;;;;7.52;48.35;101149.06;5072981;28;20041;-69
2023/01/28 15:33:33;;;;;;;15.75;5.38;;;;;;;7.55;48.24;101161.38;5072855;28;20501;-69
2023/01/28 15:36:02;;;;;;;11.38;5.53;;;;;;;7.33;48.86;101158.53;5072793;28;20048;-70
2023/01/28 15:38:30;;;;;;;11.07;5.72;;;;;;;7.31;48.90;101168.81;5072658;28;20056;-69
2023/01/28 15:41:00;;;;;;;13.23;5.78;;;;;;;7.49;49.77;101168.59;5072479;28;20045;-80
2023/01/28 15:43:37;;;;;;;12.32;5.95;;;;;;;7.60;48.94;101175.09;5054516;28;20414;-79
2023/01/28 15:46:12;;;;;;;10.32;4.70;;;;;;;7.75;47.96;101182.69;5072445;28;20045;-71
2023/01/28 15:48:52;;;;;;;11.25;5.30;;;;;;;7.76;49.07;101184.34;5072709;28;20049;-69
2023/01/28 15:51:25;;;;;;;7.95;4.85;;;;;;;7.43;47.92;101185.13;5072824;28;20072;-68
2023/01/28 15:54:09;;;;;;;7.50;4.30;;;;;;;7.38;48.14;101172.25;5072773;28;20075;-68
2023/01/28 15:56:37;;;;;;;11.87;5.80;;;;;;;7.14;49.17;101188.66;5072688;28;20044;-68
2023/01/28 15:59:16;;;;;;;10.30;6.05;;;;;;;7.07;48.70;101190.69;5072393;28;20505;-68
2023/01/28 16:01:44;;;;;;;14.45;7.47;;;;;;;7.07;49.09;101191.53;5072549;28;20379;-69
2023/01/28 16:04:28;;;;;;;12.82;6.22;;;;;;;7.10;49.46;101199.19;5072522;28;20044;-72
2023/01/28 16:06:57;;;;;;;12.38;6.80;;;;;;;7.03;50.07;101198.50;5072513;28;20060;-68
2023/01/28 16:09:29;;;;;;;11.77;5.82;;;;;;;6.95;49.91;101202.41;5072357;28;20493;-68
2023/01/28 16:12:06;;;;;;;11.45;5.72;;;;;;;6.93;52.40;101201.84;5071189;28;20048;-69
2023/01/28 16:14:48;;;;;;;11.25;5.63;;;;;;;6.78;52.04;101205.06;5072299;28;20044;-69
2023/01/28 16:17:20;;;;;;;10.38;5.43;;;;;;;6.84;53.79;101211.44;5071826;28;20048;-69
2023/01/28 16:19:55;;;;;;;8.52;5.15;;;;;;;6.81;53.31;101212.75;5037297;28;20056;-68
2023/01/28 16:22:38;;;;;;;10.55;5.88;;;;;;;6.70;54.27;101217.13;5072423;28;20063;-69
2023/01/28 16:25:26;;;;;;;10.43;6.30;;;;;;;6.55;54.36;101212.19;5054235;28;20051;-68
2023/01/28 16:27:56;;;;;;;12.88;6.78;;;;;;;6.50;55.07;101211.25;5071311;28;20048;-68
2023/01/28 16:30:25;;;;;;;12.32;6.70;;;;;;;6.27;56.07;101213.69;5072246;28;20482;-68
2023/01/28 16:32:57;;;;;;;14.23;7.35;;;;;;;6.38;55.54;101220.22;5072164;28;20139;-68
2023/01/28 16:35:29;;;;;;;13.20;7.90;;;;;;;6.29;55.97;101227.91;5054365;28;20040;-68
2023/01/28 16:38:18;;;;;;;14.23;8.10;;;;;;;6.28;55.90;101225.41;5072199;28;20040;-68
2023/01/28 16:40:46;;;;;;;15.93;7.53;;;;;;;6.22;57.10;101223.63;5071896;28;20048;-68
2023/01/28 16:43:16;;;;;;;11.35;6.70;;;;;;;6.09;56.72;101230.94;5072032;28;20041;-68
2023/01/28 16:45:45;;;;;;;11.48;6.60;;;;;;;6.09;57.54;101243.69;5071921;28;20045;-69
2023/01/28 16:48:13;;;;;;;15.30;6.97;;;;;;;6.20;57.77;101233.94;5072004;28;20479;-69
2023/01/28 16:50:42;;;;;;;12.93;7.28;;;;;;;6.15;57.23;101238.16;5072015;28;20055;-69
2023/01/28 16:53:36;;;;;;;13.02;6.85;;;;;;;6.07;59.19;101240.38;5072046;28;20047;-69
2023/01/28 16:56:04;;;;;;;;;;;;;;;5.90;58.23;101250.00;5041569;28;20068;-69
2023/01/28 16:58:34;;;;;;;15.45;8.07;;;;;;;5.78;59.22;101260.00;5067243;28;19928;-69
2023/01/28 17:01:02;;;;;;;14.20;7.97;;;;;;;5.64;60.28;101262.09;5071561;28;20052;-69
2023/01/28 17:03:30;;;;;;;19.35;7.97;;;;;;;5.48;60.51;101258.13;5071934;28;20071;-68
2023/01/28 17:05:58;;;;;;;13.38;7.05;;;;;;;5.36;61.67;101269.75;5053579;28;20052;-68
2023/01/28 17:08:26;;;;;;;18.63;8.45;;;;;;;5.33;62.83;101267.47;5071813;28;20483;-68
2023/01/28 17:10:55;;;;;;;18.80;8.45;;;;;;;5.25;63.12;101265.91;5055829;28;20055;-68
2023/01/28 17:13:24;;;;;;;21.52;9.65;;;;;;;5.14;64.62;101271.25;5090670;28;20036;-68
2023/01/28 17:15:52;;;;;;;20.83;10.02;;;;;;;5.01;65.33;101275.78;5085512;28;20037;-67
2023/01/28 17:18:20;;;;;;;23.30;11.15;;;;;;;4.88;66.02;101287.59;5089993;28;20505;-67
2023/01/28 17:20:50;;;;;;;19.27;9.73;;;;;;;4.71;66.05;101290.06;5090569;28;20048;-67
2023/01/28 17:23:21;;;;;;;25.73;11.20;;;;;;;4.66;66.01;101295.31;5088681;28;20363;-67
2023/01/28 17:25:49;;;;;;;24.00;10.63;;;;;;;4.59;66.73;101292.66;5090656;28;20067;-68
2023/01/28 17:28:17;;;;;;;18.95;10.20;;;;;;;4.55;66.16;101296.88;5090447;28;20040;-67
2023/01/28 17:30:46;;;;;;;19.92;9.85;;;;;;;4.50;66.49;101302.13;5072230;28;20591;-68
2023/01/28 17:33:15;;;;;;;21.38;9.70;;;;;;;4.38;66.67;101302.84;5089938;28;20044;-68
2023/01/28 17:35:46;;;;;;;21.58;10.85;;;;;;;4.35;67.15;101310.59;5089982;28;20047;-68
2023/01/28 17:38:16;;;;;;;19.13;9.77;;;;;;;4.28;66.74;101319.59;5068398;28;20505;-67
2023/01/28 17:40:45;;;;;;;22.30;10.73;;;;;;;4.32;66.89;101322.69;5093385;28;20054;-68
2023/01/28 17:43:16;;;;;;;23.90;10.60;;;;;;;4.35;67.87;101326.84;5093390;28;20048;-67
2023/01/28 17:45:47;;;;;;;19.95;10.02;;;;;;;4.26;68.06;101324.38;5093101;28;20044;-67
2023/01/28 17:48:16;;;;;;;21.33;10.50;;;;;;;4.20;68.12;101321.75;5092839;28;20040;-68
2023/01/28 17:50:46;;;;;;;23.42;10.98;;;;;;;4.11;68.29;101329.31;5091597;28;20515;-67
2023/01/28 17:53:15;;;;;;;22.52;10.73;;;;;;;4.04;69.19;101323.91;5089971;28;20044;-67
2023/01/28 17:55:43;;;;;;;21.85;11.68;;;;;;;3.94;69.76;101318.97;5079954;28;20437;-68
2023/01/28 17:58:11;;;;;;;22.80;10.88;;;;;;;3.92;70.72;101337.34;5092830;28;20572;-68
2023/01/28 18:00:39;;;;;;;42.03;23.88;;;;;;;3.93;70.21;101338.13;5089161;28;20044;-68
2023/01/28 18:03:11;;;;;;;44.10;24.48;;;;;;;4.05;70.11;101341.81;5075076;28;20058;-68
2023/01/28 18:05:40;;;;;;;35.30;19.73;;;;;;;4.11;70.05;101350.97;5093596;28;20414;-68
2023/01/28 18:08:08;;;;;;;26.98;15.63;;;;;;;4.07;69.47;101361.41;5075268;28;20046;-69
2023/01/28 18:10:42;;;;;;;24.10;13.05;;;;;;;3.96;68.94;101359.38;5093143;28;20044;-68
2023/01/28 18:13:09;;;;;;;22.40;11.57;;;;;;;3.90;69.20;101358.34;5076405;28;20482;-69
2023/01/28 18:15:37;;;;;;;22.25;9.98;;;;;;;3.90;69.49;101355.66;5094464;28;20044;-69
2023/01/28 18:18:06;;;;;;;21.08;9.98;;;;;;;3.91;69.26;101365.44;5072556;28;20049;-69
2023/01/28 18:20:34;;;;;;;20.20;10.57;;;;;;;3.93;68.67;101367.94;5073011;28;20399;-69
2023/01/28 18:23:01;;;;;;;18.85;9.95;;;;;;;4.09;68.15;101375.56;5072721;28;20045;-68
2023/01/28 18:25:29;;;;;;;18.23;10.45;;;;;;;4.20;69.06;101371.31;5072948;28;20044;-69
2023/01/28 18:27:57;;;;;;;18.27;10.02;;;;;;;4.12;68.27;101367.03;5070243;28;20048;-70
2023/01/28 18:30:25;;;;;;;16.77;10.35;;;;;;;4.01;68.97;101378.53;5073450;28;20048;-69
2023/01/28 18:32:53;;;;;;;18.48;9.40;;;;;;;3.87;69.44;101375.06;5072401;28;20111;-68
2023/01/28 18:35:21;;;;;;;18.20;9.43;;;;;;;3.84;68.69;101379.03;5073576;28;20399;-68
2023/01/28 18:37:49;;;;;;;16.85;8.88;;;;;;;3.85;68.56;101382.53;5073671;28;20047;-68
2023/01/28 18:40:17;;;;;;;18.05;8.93;;;;;;;3.83;69.28;101392.78;5073380;28;20044;-68
2023/01/28 18:42:45;;;;;;;18.60;9.38;;;;;;;3.89;68.08;101386.50;5073454;28;20048;-69
2023/01/28 18:45:13;;;;;;;25.20;13.20;;;;;;;3.86;68.85;101387.75;5073364;28;20045;-68
2023/01/28 18:47:41;;;;;;;25.48;13.20;;;;;;;3.81;69.30;101389.44;5073366;28;20044;-69
2023/01/28 18:50:09;;;;;;;24.23;11.82;;;;;;;3.73;69.19;101404.88;5072210;28;20487;-68
2023/01/28 18:52:37;;;;;;;24.73;11.43;;;;;;;3.65;71.04;101396.19;5073376;28;20037;-68
2023/01/28 18:55:05;;;;;;;58.83;27.50;;;;;;;3.46;70.83;101396.84;5073534;28;20051;-69
2023/01/28 18:57:33;;;;;;;48.72;22.25;;;;;;;3.43;71.42;101404.56;5072024;28;20043;-69
2023/01/28 19:00:01;;;;;;;26.38;13.73;;;;;;;3.38;71.19;101407.06;5071618;28;20040;-69
2023/01/28 19:02:29;;;;;;;29.25;15.27;;;;;;;3.34;72.91;101401.25;5072798;28;20407;-68
2023/01/28 19:04:58;;;;;;;30.67;14.10;;;;;;;3.30;73.42;101411.66;5072530;28;20045;-68
2023/01/28 19:07:30;;;;;;;27.10;13.57;;;;;;;3.15;73.10;101401.06;5073007;28;20048;-68
2023/01/28 19:09:59;;;;;;;33.50;14.65;;;;;;;3.10;74.57;101414.38;5072838;28;20484;-68
2023/01/28 19:12:30;;;;;;;33.85;15.70;;;;;;;3.07;75.56;101414.78;5072301;28;20055;-69
2023/01/28 19:14:59;;;;;;;29.98;15.20;;;;;;;2.99;75.79;101415.84;5073389;28;20037;-68
2023/01/28 19:17:27;;;;;;;31.80;16.08;;;;;;;2.92;75.24;101415.84;5073058;28;20053;-69
2023/01/28 19:19:55;;;;;;;33.63;16.08;;;;;;;2.86;75.93;101427.50;5091960;28;20051;-69
2023/01/28 19:22:23;;;;;;;29.27;16.23;;;;;;;2.81;76.07;101433.53;5093533;28;20402;-68
2023/01/28 19:24:50;;;;;;;29.70;15.65;;;;;;;2.79;76.53;101434.78;5093282;28;20044;-69
2023/01/28 19:27:18;;;;;;;33.00;14.85;;;;;;;2.72;77.11;101429.34;5093274;28;20044;-69
2023/01/28 19:29:46;;;;;;;28.90;15.27;;;;;;;2.67;77.36;101432.66;5093319;28;20035;-69
2023/01/28 19:32:14;;;;;;;30.25;15.43;;;;;;;2.67;77.75;101434.53;5093247;28;20380;-69
2023/01/28 19:34:42;;;;;;;32.80;15.63;;;;;;;2.60;78.58;101434.53;5093264;28;20040;-69
2023/01/28 19:37:10;;;;;;;32.55;16.33;;;;;;;2.63;79.90;101439.53;5093311;28;20039;-69
2023/01/28 19:39:38;;;;;;;30.08;14.85;;;;;;;2.61;80.54;101438.91;5075100;28;20044;-69
2023/01/28 19:42:06;;;;;;;24.35;13.00;;;;;;;2.57;80.20;101444.91;5092956;28;20482;-69
2023/01/28 19:44:34;;;;;;;31.15;14.95;;;;;;;2.57;79.94;101451.16;5093241;28;20048;-69
2023/01/28 19:47:04;;;;;;;30.52;15.35;;;;;;;2.56;80.38;101457.59;5093179;28;20044;-69
2023/01/28 19:49:32;;;;;;;24.38;13.57;;;;;;;2.53;80.63;101458.00;5075196;28;20397;-69
2023/01/28 19:52:00;;;;;;;29.27;13.68;;;;;;;2.56;79.75;101449.50;5093130;28;20051;-69
2023/01/28 19:54:29;;;;;;;26.33;13.73;;;;;;;2.61;79.88;101462.38;5092932;28;20044;-69
2023/01/28 19:56:57;;;;;;;29.70;15.40;;;;;;;2.64;78.66;101452.00;5092835;28;20043;-69
2023/01/28 19:59:28;;;;;;;30.25;15.68;;;;;;;2.62;78.26;101464.88;5092573;28;20051;-69
2023/01/28 20:01:55;;;;;;;31.35;15.60;;;;;;;2.57;79.60;101463.81;5092445;28;20063;-69
2023/01/28 20:04:23;;;;;;;33.50;17.15;;;;;;;2.50;80.07;101471.94;5092764;28;20048;-69
2023/01/28 20:06:51;;;;;;;35.50;17.63;;;;;;;2.42;80.38;101471.09;5092652;28;20044;-69
2023/01/28 20:09:19;;;;;;;34.13;17.27;;;;;;;2.38;81.29;101471.66;5092520;28;20092;-69
2023/01/28 20:11:47;;;;;;;39.40;20.83;;;;;;;2.37;80.13;101468.16;5092481;28;20052;-69
2023/01/28 20:14:17;;;;;;;40.80;20.30;;;;;;;2.45;81.18;101471.69;5092633;28;20044;-69